Pagina principale
METAR-TAF:

METAR-TAF

Aeroporti :

Aeroporto Internazionale Lynden Pindling

Nassau, Bahamas

latitudine: 25-03N, longitudine: 077-28W, altezza: 3 m

Osservazione

Il bollettino è stato emesso 14 minuti fa, alle 22:00 UTC
Vento 7 kt da nord/nord-est
Temperature 29°C
Umidità 70%
Pressione 1018 hPa
Visibilità 10 km o più
Poco nuvoloso ad un'altezza di 1800 ft
Nubi sparse ad un'altezza di 3000 ft
Nuvoloso ad un'altezza di 22000 ft

METAR: MYNN 172200Z 03007KT 9999 FEW018 SCT030 BKN220 29/23 A3007

Ora: 18:14 (22:14 UTC)

Previsione

Il bollettino è stato emesso 6 ore e 44 minuti fa, alle 15:30 UTC
Previsione valida dal 17 alle 18 UTC al 18 alle 18 UTC
Vento 3 kt da direzioni variabili
Visibilità 10 km o più
Poco nuvoloso ad un'altezza di 1500 ft, Cumulonembo.
Nuvoloso ad un'altezza di 22000 ft
rovesci nelle vicinanze

TAF: MYNN 171530Z 1718/1818 VRB03KT 9999 VCSH FEW015CB BKN220

Osservazioni e previsioni meteorologiche di più di 4000 aeroporti (messaggi METAR e TAF).

Le stazioni disponibili sono rappresentate dai dischi gialli e rossi sulla carta.

Puntare il mouse per vedere il nome della stazione.

Clicca sopra per visualizzare le osservazioni e previsioni meteorologiche.

Per cambiare la mappa : fare clic sui pulsanti verdi con una croce nera per ingrandire, il pulsante verde con un trattino per diminuire, o sulla freccia verde per le mappe adiacenti.


METAR-TAF: